Time;durP1;ratioP1;P1;durP2;ratioP2;P2;SDS_P1;SDS_P2;PMS_P1;PMS_P2;Temp;Humidity;BMP_temperature;BMP_pressure;BME280_temperature;BME280_humidity;BME280_pressure;Samples;Min_cycle;Max_cycle;Signal;HPM_P1;HPM_P2
2022/09/08 00:02:06;;;;;;;5.28;3.88;;;;;;;18.66;49.69;95247.41;5008199;28;20230;-67
2022/09/08 00:04:32;;;;;;;6.43;3.70;;;;;;;18.79;49.57;95236.00;5006628;28;20276;-66
2022/09/08 00:06:57;;;;;;;3.97;3.50;;;;;;;18.75;49.72;95235.59;5009915;28;20241;-66
2022/09/08 00:09:22;;;;;;;4.10;3.72;;;;;;;18.73;49.76;95238.41;5010200;28;20306;-66
2022/09/08 00:11:50;;;;;;;4.82;3.78;;;;;;;18.70;50.06;95241.47;5009325;28;20226;-67
2022/09/08 00:14:16;;;;;;;5.05;3.70;;;;;;;18.54;50.55;95246.31;5005173;28;20227;-66
2022/09/08 00:16:41;;;;;;;6.60;4.13;;;;;;;18.47;50.91;95239.09;5007577;28;20240;-67
2022/09/08 00:19:07;;;;;;;4.20;3.80;;;;;;;18.43;51.12;95251.16;4999416;28;20265;-66
2022/09/08 00:21:32;;;;;;;6.28;4.10;;;;;;;18.50;50.87;95238.72;5008112;28;20707;-66
2022/09/08 00:23:58;;;;;;;5.40;4.07;;;;;;;18.57;50.91;95238.72;5007786;28;20224;-67
2022/09/08 00:26:23;;;;;;;5.93;4.20;;;;;;;18.44;51.35;95246.63;4985346;28;20318;-66
2022/09/08 00:28:49;;;;;;;5.25;4.53;;;;;;;18.47;51.17;95240.91;5005347;28;20240;-71
2022/09/08 00:31:15;;;;;;;4.68;4.20;;;;;;;18.62;50.71;95243.47;5001732;28;20199;-67
2022/09/08 00:33:42;;;;;;;4.80;4.40;;;;;;;18.25;51.93;95242.81;5006690;28;20207;-70
2022/09/08 00:36:14;;;;;;;6.03;5.47;;;;;;;18.30;51.84;95243.06;5001997;28;20706;-71
2022/09/08 00:38:40;;;;;;;4.80;4.35;;;;;;;18.35;51.75;95245.97;4997548;28;20329;-68
2022/09/08 00:41:11;;;;;;;5.72;4.82;;;;;;;18.14;52.06;95246.84;4998443;28;20214;-66
2022/09/08 00:43:43;;;;;;;4.78;4.28;;;;;;;18.19;52.17;95243.59;4997249;28;20243;-70
2022/09/08 00:46:08;;;;;;;5.35;4.32;;;;;;;18.30;51.85;95251.06;5003044;28;20302;-69
2022/09/08 00:48:53;;;;;;;4.90;4.43;;;;;;;18.20;52.03;95247.91;4999625;28;20760;-71
2022/09/08 00:51:19;;;;;;;5.50;4.47;;;;;;;17.97;52.47;95248.16;5007023;28;20294;-66
2022/09/08 00:53:46;;;;;;;4.70;4.30;;;;;;;18.13;51.74;95239.06;5003349;28;20202;-72
2022/09/08 00:56:13;;;;;;;4.20;3.80;;;;;;;18.21;51.78;95250.38;5000589;28;20243;-67
2022/09/08 00:58:39;;;;;;;5.10;3.95;;;;;;;18.25;51.22;95246.31;5000767;28;20233;-70
2022/09/08 01:01:06;;;;;;;6.15;4.38;;;;;;;18.30;51.10;95249.22;5005215;28;20261;-69
2022/09/08 01:03:33;;;;;;;3.92;3.50;;;;;;;18.32;50.93;95251.69;5007413;28;20206;-73
2022/09/08 01:15:07;;;;;;;4.85;3.65;;;;;;;18.07;51.73;95244.13;5004868;28;20209;-66
2022/09/08 01:17:32;;;;;;;4.13;3.70;;;;;;;18.06;51.96;95239.81;5008340;28;20760;-68
2022/09/08 01:19:59;;;;;;;4.35;3.50;;;;;;;17.96;51.94;95231.38;5001052;28;20655;-68
2022/09/08 01:22:34;;;;;;;5.88;3.80;;;;;;;17.93;52.33;95229.06;4993002;28;20230;-66
2022/09/08 01:25:33;;;;;;;6.32;3.70;;;;;;;17.97;52.14;95238.31;5009210;28;20313;-67
2022/09/08 01:28:33;;;;;;;3.65;3.35;;;;;;;17.86;52.90;95241.50;4996832;28;20754;-69
2022/09/08 01:31:02;;;;;;;4.28;3.88;;;;;;;17.89;52.54;95237.63;5004172;28;20219;-66
2022/09/08 01:33:27;;;;;;;6.53;4.25;;;;;;;17.76;52.89;95238.31;5005315;28;20248;-68
2022/09/08 01:35:54;;;;;;;5.03;3.90;;;;;;;17.73;53.04;95244.00;5008702;28;20301;-66
2022/09/08 01:38:19;;;;;;;5.82;3.90;;;;;;;17.88;52.49;95246.63;5008317;28;20237;-69
2022/09/08 01:40:45;;;;;;;4.20;3.80;;;;;;;17.78;52.89;95246.94;5008414;28;20214;-66
2022/09/08 01:43:10;;;;;;;5.03;4.10;;;;;;;17.78;53.18;95249.59;5008904;28;20274;-72
2022/09/08 01:45:37;;;;;;;4.80;4.20;;;;;;;17.84;53.20;95246.19;5008463;28;20333;-69
2022/09/08 01:48:03;;;;;;;4.32;3.92;;;;;;;17.73;53.39;95239.50;4999561;28;20213;-72
2022/09/08 01:50:29;;;;;;;5.32;4.18;;;;;;;17.57;53.80;95235.25;5017181;28;20231;-70
2022/09/08 01:52:54;;;;;;;4.03;3.63;;;;;;;17.62;53.53;95237.38;5005970;28;20230;-67
2022/09/08 01:55:20;;;;;;;4.68;4.15;;;;;;;17.44;54.21;95240.44;4997646;28;20215;-68
2022/09/08 01:57:46;;;;;;;4.93;4.40;;;;;;;17.51;54.27;95241.34;5007268;28;20223;-72
2022/09/08 02:00:12;;;;;;;4.80;4.28;;;;;;;17.44;54.40;95236.97;5009289;28;20210;-70
2022/09/08 02:02:38;;;;;;;5.57;4.18;;;;;;;17.44;54.46;95237.78;5007783;28;20252;-69
2022/09/08 02:05:03;;;;;;;6.43;4.57;;;;;;;17.39;54.41;95221.59;5008295;28;20243;-67
2022/09/08 02:07:31;;;;;;;4.38;4.05;;;;;;;17.35;54.54;95223.81;4992607;28;20223;-66
2022/09/08 02:09:57;;;;;;;4.80;3.88;;;;;;;17.34;54.55;95230.09;5011958;28;20264;-67
2022/09/08 02:12:22;;;;;;;4.85;4.45;;;;;;;17.27;54.87;95223.91;5009842;28;20745;-70
2022/09/08 02:14:48;;;;;;;8.13;4.45;;;;;;;17.22;55.18;95225.50;5008122;28;20207;-70
2022/09/08 02:17:13;;;;;;;4.20;3.90;;;;;;;17.14;55.10;95226.44;5008162;28;20318;-69
2022/09/08 02:19:38;;;;;;;5.95;4.05;;;;;;;17.14;55.43;95219.28;5012132;28;20235;-67
2022/09/08 02:22:04;;;;;;;4.95;4.55;;;;;;;17.16;55.01;95222.56;5012297;28;20584;-69
2022/09/08 02:24:29;;;;;;;5.50;4.50;;;;;;;17.18;54.85;95220.53;5003888;28;20213;-69
2022/09/08 02:26:55;;;;;;;5.00;4.25;;;;;;;17.27;54.63;95217.75;5006115;28;21050;-73
2022/09/08 02:29:21;;;;;;;4.97;4.47;;;;;;;17.22;55.02;95225.50;5012136;28;20218;-68
2022/09/08 02:31:47;;;;;;;4.68;4.28;;;;;;;17.22;54.83;95225.50;5006404;28;20649;-69
2022/09/08 02:34:12;;;;;;;8.30;5.00;;;;;;;17.01;55.55;95229.75;5012171;28;20739;-69
2022/09/08 02:36:38;;;;;;;5.28;4.78;;;;;;;17.05;55.59;95228.34;5009799;28;20219;-71
2022/09/08 02:39:04;;;;;;;5.05;4.50;;;;;;;17.06;55.63;95221.22;5012388;28;20219;-71
2022/09/08 02:41:29;;;;;;;5.30;4.80;;;;;;;17.08;55.44;95222.69;5009526;28;20223;-70
2022/09/08 02:43:56;;;;;;;7.68;5.03;;;;;;;17.13;55.05;95220.31;5002989;28;20587;-66
2022/09/08 02:46:22;;;;;;;4.63;4.18;;;;;;;17.10;55.21;95211.88;5008301;28;20770;-69
2022/09/08 02:48:47;;;;;;;6.20;4.57;;;;;;;17.18;55.16;95212.56;5019290;28;20301;-68
2022/09/08 02:51:14;;;;;;;5.13;4.72;;;;;;;17.10;55.01;95215.34;5012651;28;20199;-67
2022/09/08 02:53:41;;;;;;;5.15;4.35;;;;;;;17.00;55.71;95216.66;5008656;28;20246;-68
2022/09/08 02:56:07;;;;;;;5.47;4.78;;;;;;;16.80;56.27;95211.91;5001076;28;20216;-65
2022/09/08 02:58:34;;;;;;;6.00;5.00;;;;;;;16.90;56.28;95214.31;5001343;28;20235;-69
2022/09/08 03:01:00;;;;;;;5.72;5.10;;;;;;;17.01;55.63;95216.47;5003864;28;20305;-72
2022/09/08 03:03:26;;;;;;;8.70;5.47;;;;;;;17.01;55.77;95215.66;4995508;28;20203;-67
2022/09/08 03:05:52;;;;;;;7.38;5.75;;;;;;;16.99;55.94;95223.78;5011705;28;20210;-71
2022/09/08 03:08:19;;;;;;;6.63;6.03;;;;;;;16.93;56.23;95220.06;5009195;28;20219;-72
2022/09/08 03:10:44;;;;;;;7.18;6.00;;;;;;;16.71;57.11;95219.16;5010160;28;20241;-70
2022/09/08 03:13:10;;;;;;;6.80;6.15;;;;;;;16.67;57.32;95217.84;5000975;28;20226;-71
2022/09/08 03:15:36;;;;;;;6.85;5.53;;;;;;;16.66;57.37;95218.06;5001361;28;20575;-65
2022/09/08 03:18:07;;;;;;;7.68;6.07;;;;;;;16.76;56.93;95210.63;5006301;28;20248;-65
2022/09/08 03:20:35;;;;;;;10.88;5.63;;;;;;;16.84;56.72;95207.91;5005570;28;20231;-70
2022/09/08 03:23:01;;;;;;;8.23;5.47;;;;;;;16.81;56.99;95212.75;5010802;28;20272;-67
2022/09/08 03:25:27;;;;;;;6.88;5.20;;;;;;;16.69;57.42;95223.00;5002815;28;20228;-70
2022/09/08 03:27:53;;;;;;;7.85;6.20;;;;;;;16.85;56.99;95219.34;5009405;28;20894;-69
2022/09/08 03:30:19;;;;;;;7.82;5.63;;;;;;;16.78;57.34;95221.09;5007893;28;20282;-70
2022/09/08 03:32:46;;;;;;;8.05;5.60;;;;;;;16.61;57.85;95229.22;5000723;28;20223;-69
2022/09/08 03:35:14;;;;;;;7.18;5.93;;;;;;;16.65;57.93;95227.84;5004386;28;20616;-66
2022/09/08 03:37:40;;;;;;;6.47;5.88;;;;;;;16.61;58.14;95229.22;5002453;28;20253;-66
2022/09/08 03:40:08;;;;;;;8.23;6.93;;;;;;;16.34;59.51;95233.34;5010300;28;20711;-68
2022/09/08 03:42:35;;;;;;;8.70;6.80;;;;;;;16.52;59.06;95231.16;5005768;28;20206;-69
2022/09/08 03:45:07;;;;;;;6.07;5.57;;;;;;;16.55;58.86;95237.91;5017504;28;20222;-65
2022/09/08 03:47:33;;;;;;;6.82;5.95;;;;;;;16.73;58.47;95234.88;5005888;28;20258;-64
2022/09/08 03:49:58;;;;;;;6.70;6.05;;;;;;;16.85;57.67;95229.97;5007746;28;20372;-69
2022/09/08 03:52:25;;;;;;;6.85;6.22;;;;;;;16.48;58.71;95232.50;4998250;28;20265;-68
2022/09/08 03:54:51;;;;;;;7.50;6.20;;;;;;;16.41;59.58;95223.66;5005913;28;20223;-70
2022/09/08 03:57:21;;;;;;;7.85;6.43;;;;;;;16.32;59.54;95225.53;5006310;28;20210;-68
2022/09/08 03:59:49;;;;;;;7.30;6.07;;;;;;;16.35;59.87;95226.19;5000615;28;20553;-70
2022/09/08 04:02:15;;;;;;;6.35;5.65;;;;;;;16.28;60.10;95228.75;5007544;28;20219;-69
2022/09/08 04:04:42;;;;;;;8.77;6.50;;;;;;;16.27;60.09;95225.25;5003627;28;20321;-66
2022/09/08 04:07:07;;;;;;;8.98;6.15;;;;;;;16.34;59.83;95233.34;5000523;28;20219;-69
2022/09/08 04:09:33;;;;;;;7.13;6.25;;;;;;;16.40;59.96;95224.63;5009487;28;20237;-71
2022/09/08 04:11:59;;;;;;;7.25;6.50;;;;;;;16.53;59.74;95237.28;5000496;28;20243;-66
2022/09/08 04:14:25;;;;;;;8.50;6.95;;;;;;;16.61;59.15;95236.38;5000510;28;20282;-69
2022/09/08 04:16:50;;;;;;;7.15;6.45;;;;;;;16.56;59.16;95239.56;5017692;28;20227;-72
2022/09/08 04:19:16;;;;;;;7.90;6.80;;;;;;;16.74;58.47;95244.50;5010696;28;20272;-69
2022/09/08 04:21:41;;;;;;;8.45;7.65;;;;;;;16.66;58.78;95248.06;5007863;28;20580;-71
2022/09/08 04:24:06;;;;;;;7.57;6.88;;;;;;;16.44;59.29;95243.66;5022239;28;20311;-69
2022/09/08 04:26:32;;;;;;;8.18;7.47;;;;;;;16.43;59.83;95242.03;5006291;28;20255;-70
2022/09/08 04:28:58;;;;;;;7.97;7.10;;;;;;;16.56;59.40;95241.41;5007840;28;20813;-70
2022/09/08 04:31:24;;;;;;;9.18;7.35;;;;;;;16.64;58.78;95243.97;5003525;28;20215;-72
2022/09/08 04:33:50;;;;;;;8.75;6.70;;;;;;;16.63;58.60;95248.44;5008092;28;20224;-66
2022/09/08 04:36:21;;;;;;;6.90;6.30;;;;;;;16.49;58.77;95235.97;5006284;28;20226;-69
2022/09/08 04:38:47;;;;;;;7.15;6.45;;;;;;;16.31;59.62;95231.88;5002980;28;20684;-70
2022/09/08 04:41:16;;;;;;;9.02;6.32;;;;;;;16.27;60.09;95227.09;5021186;28;20332;-69
2022/09/08 04:43:42;;;;;;;7.25;6.55;;;;;;;16.16;60.63;95224.91;4994595;28;20245;-70
2022/09/08 04:46:13;;;;;;;6.93;6.43;;;;;;;16.24;60.31;95232.78;5000877;28;20567;-72
2022/09/08 04:48:41;;;;;;;10.18;7.75;;;;;;;16.53;59.58;95245.25;5009183;28;20284;-66
2022/09/08 04:51:07;;;;;;;11.95;7.50;;;;;;;16.57;59.03;95241.19;5017750;28;20203;-66
2022/09/08 04:53:35;;;;;;;7.63;6.88;;;;;;;16.63;58.77;95242.31;5014231;28;20219;-71
2022/09/08 04:56:01;;;;;;;9.20;6.85;;;;;;;16.69;58.23;95237.09;5001207;28;20223;-68
2022/09/08 04:58:29;;;;;;;10.60;7.22;;;;;;;16.60;58.65;95240.00;5007615;28;20272;-68
2022/09/08 05:00:54;;;;;;;10.40;7.50;;;;;;;16.52;58.73;95247.06;4994839;28;20281;-70
2022/09/08 05:03:19;;;;;;;11.07;7.40;;;;;;;16.54;58.70;95244.22;4993607;28;20220;-71
2022/09/08 05:05:45;;;;;;;10.23;7.65;;;;;;;16.42;59.08;95249.16;5003255;28;20239;-69
2022/09/08 05:08:10;;;;;;;9.23;6.88;;;;;;;16.41;58.93;95236.06;5007626;28;20708;-72
2022/09/08 05:10:36;;;;;;;8.95;7.25;;;;;;;16.53;58.15;95243.41;5008188;28;20226;-71
2022/09/08 05:13:01;;;;;;;9.65;7.38;;;;;;;16.77;57.44;95252.13;5007517;28;20226;-69
2022/09/08 05:15:27;;;;;;;8.57;6.57;;;;;;;16.82;57.08;95257.72;5008545;28;20522;-67
2022/09/08 05:17:54;;;;;;;7.45;6.28;;;;;;;16.86;56.47;95256.31;4996118;28;20269;-72
2022/09/08 05:20:21;;;;;;;7.43;6.55;;;;;;;16.89;56.46;95255.13;5006696;28;20229;-66
2022/09/08 05:22:47;;;;;;;8.45;6.50;;;;;;;16.93;56.53;95264.38;5006762;28;20334;-68
2022/09/08 05:25:12;;;;;;;9.15;7.00;;;;;;;17.00;56.30;95275.09;5003295;28;20267;-72
2022/09/08 05:27:38;;;;;;;7.82;6.38;;;;;;;17.15;55.97;95273.25;5003317;28;20255;-70
2022/09/08 05:30:04;;;;;;;9.07;6.88;;;;;;;17.32;55.06;95268.53;5019711;28;20191;-69
2022/09/08 05:32:29;;;;;;;6.72;6.07;;;;;;;17.20;55.30;95269.00;5008698;28;20226;-69
2022/09/08 05:34:55;;;;;;;9.75;6.57;;;;;;;17.27;55.17;95262.94;5002183;28;20233;-66
2022/09/08 05:37:20;;;;;;;7.43;5.85;;;;;;;17.22;54.71;95266.19;5008250;28;20357;-70
2022/09/08 05:39:46;;;;;;;9.57;6.95;;;;;;;17.17;55.51;95273.88;5007298;28;20284;-69
2022/09/08 05:42:12;;;;;;;11.35;6.70;;;;;;;17.36;55.00;95275.13;5005044;28;20671;-72
2022/09/08 05:44:38;;;;;;;9.82;6.15;;;;;;;17.37;55.18;95266.13;5006709;28;20227;-69
2022/09/08 05:47:04;;;;;;;9.35;7.18;;;;;;;17.50;54.99;95265.44;5006684;28;20223;-72
2022/09/08 05:49:31;;;;;;;12.98;7.70;;;;;;;17.39;54.84;95258.78;5007307;28;20222;-66
2022/09/08 05:51:57;;;;;;;9.95;6.78;;;;;;;17.50;55.24;95266.28;4994512;28;20224;-72
2022/09/08 05:54:22;;;;;;;7.93;6.63;;;;;;;17.58;54.95;95268.00;5007371;28;20215;-69
2022/09/08 05:56:48;;;;;;;8.88;6.50;;;;;;;17.73;54.39;95265.28;5008560;28;20214;-71
2022/09/08 05:59:14;;;;;;;10.77;6.53;;;;;;;17.63;54.70;95260.28;5007034;28;20219;-68
2022/09/08 06:01:39;;;;;;;8.50;7.13;;;;;;;17.81;54.15;95265.19;5007781;28;20226;-69
2022/09/08 06:04:05;;;;;;;8.05;7.03;;;;;;;17.55;55.15;95258.56;5007228;28;20210;-66
2022/09/08 06:06:32;;;;;;;9.23;6.93;;;;;;;17.24;55.43;95258.00;5003983;28;20724;-66
2022/09/08 06:09:02;;;;;;;9.02;7.35;;;;;;;17.73;54.04;95262.63;5002065;28;20286;-69
2022/09/08 06:11:29;;;;;;;8.65;7.35;;;;;;;17.96;53.45;95275.75;5020985;28;20298;-70
2022/09/08 06:13:55;;;;;;;9.85;7.15;;;;;;;17.99;53.15;95259.41;5004808;28;20715;-68
2022/09/08 06:16:21;;;;;;;9.23;7.00;;;;;;;18.17;52.80;95277.56;4999774;28;20294;-70
2022/09/08 06:18:47;;;;;;;11.20;6.82;;;;;;;18.06;53.16;95282.38;5017316;28;20382;-69
2022/09/08 06:21:25;;;;;;;8.20;7.03;;;;;;;17.81;53.41;95271.31;5010074;28;20217;-67
2022/09/08 06:23:53;;;;;;;8.30;7.40;;;;;;;17.98;52.66;95290.50;5014396;28;20381;-66
2022/09/08 06:26:54;;;;;;;10.23;8.15;;;;;;;18.14;52.37;95284.09;5007170;28;20849;-65
2022/09/08 06:29:59;;;;;;;9.80;7.20;;;;;;;18.28;52.21;95282.34;5003710;28;20252;-70
2022/09/08 06:32:48;;;;;;;9.45;7.57;;;;;;;18.39;51.81;95287.19;5002986;28;20218;-71
2022/09/08 06:35:26;;;;;;;9.50;6.70;;;;;;;18.51;51.30;95282.94;4995879;28;20302;-73
2022/09/08 06:37:57;;;;;;;7.97;6.97;;;;;;;18.59;51.00;95289.16;4999236;28;20226;-69
2022/09/08 06:40:28;;;;;;;11.13;6.85;;;;;;;18.65;51.60;95283.84;5002336;28;20239;-66
2022/09/08 06:43:00;;;;;;;8.25;6.13;;;;;;;18.46;51.59;95288.03;5003441;28;20336;-72
2022/09/08 06:45:36;;;;;;;12.02;6.60;;;;;;;18.38;51.61;95290.03;5006348;28;20222;-65
2022/09/08 06:48:19;;;;;;;8.02;6.47;;;;;;;18.59;50.66;95297.13;4995391;28;20234;-73
2022/09/08 06:51:08;;;;;;;8.52;6.72;;;;;;;18.76;50.19;95292.34;5011214;28;20365;-71
2022/09/08 06:53:59;;;;;;;8.15;6.22;;;;;;;18.83;50.47;95294.03;5002504;28;20219;-72
2022/09/08 06:56:29;;;;;;;8.98;6.15;;;;;;;18.96;50.02;95295.97;5026809;28;20222;-65
2022/09/08 06:59:01;;;;;;;7.32;6.28;;;;;;;19.14;49.69;95298.13;4998603;28;20275;-68
2022/09/08 07:01:35;;;;;;;7.65;6.10;;;;;;;19.14;49.63;95306.94;5011911;28;20226;-70
2022/09/08 07:04:07;;;;;;;8.15;6.25;;;;;;;19.07;50.56;95302.59;5019956;28;20223;-70
2022/09/08 07:06:38;;;;;;;6.32;5.72;;;;;;;19.29;49.99;95306.78;5008644;28;20215;-67
2022/09/08 07:09:11;;;;;;;10.43;6.03;;;;;;;19.37;50.20;95306.59;5007808;28;20576;-67
2022/09/08 07:11:48;;;;;;;7.75;5.63;;;;;;;19.54;49.06;95306.25;5010121;28;20234;-67
2022/09/08 07:14:51;;;;;;;6.80;4.75;;;;;;;19.48;48.97;95296.38;5011201;28;20226;-70
2022/09/08 07:17:29;;;;;;;7.43;5.13;;;;;;;19.71;48.12;95302.25;5011664;28;20248;-71
2022/09/08 07:19:56;;;;;;;7.45;4.90;;;;;;;19.79;47.64;95295.91;5009195;28;20357;-70
2022/09/08 07:22:43;;;;;;;7.60;5.05;;;;;;;20.00;47.09;95301.06;5004568;28;20700;-73
2022/09/08 07:25:53;;;;;;;9.98;5.20;;;;;;;20.28;46.31;95302.72;5003327;28;21008;-72
2022/09/08 07:28:33;;;;;;;8.65;7.43;;;;;;;20.44;46.06;95296.16;4956229;28;20231;-70
2022/09/08 07:31:03;;;;;;;7.05;5.00;;;;;;;20.69;45.84;95297.19;4971045;28;20598;-67
2022/09/08 07:33:37;;;;;;;7.13;5.22;;;;;;;20.86;45.75;95299.44;4968161;28;20219;-69
2022/09/08 07:36:10;;;;;;;6.53;4.80;;;;;;;20.98;44.58;95303.09;4956419;28;20302;-72
2022/09/08 07:38:49;;;;;;;8.23;4.63;;;;;;;21.20;43.59;95308.16;4943993;28;20316;-70
2022/09/08 07:41:33;;;;;;;6.10;4.50;;;;;;;21.31;43.41;95308.34;4944877;29;20224;-69
2022/09/08 07:44:02;;;;;;;5.40;4.85;;;;;;;21.45;42.90;95298.44;4951396;28;20223;-69
2022/09/08 07:46:54;;;;;;;6.97;5.07;;;;;;;21.46;43.27;95304.63;4968398;28;20232;-69
2022/09/08 07:49:34;;;;;;;6.30;4.78;;;;;;;21.62;42.09;95303.31;4969224;28;20223;-73
2022/09/08 07:52:15;;;;;;;6.80;4.97;;;;;;;21.65;41.71;95298.38;4968934;28;20224;-74
2022/09/08 07:55:02;;;;;;;5.93;4.53;;;;;;;21.71;42.03;95300.19;4960189;28;20247;-67
2022/09/08 07:57:50;;;;;;;7.50;4.55;;;;;;;21.73;42.09;95289.25;4974947;28;20584;-72
2022/09/08 08:00:36;;;;;;;5.60;5.05;;;;;;;21.72;42.56;95291.09;4932780;29;20205;-71
2022/09/08 08:03:20;;;;;;;5.95;4.63;;;;;;;21.69;42.76;95286.19;4943291;29;20327;-72
2022/09/08 08:05:50;;;;;;;8.10;4.38;;;;;;;21.69;42.87;95293.41;4943504;29;20221;-69
2022/09/08 08:08:40;;;;;;;7.82;4.40;;;;;;;21.77;42.21;95293.97;4943196;29;20244;-69
2022/09/08 08:11:18;;;;;;;4.70;4.30;;;;;;;21.95;41.99;95298.59;4946545;29;20225;-73
2022/09/08 08:14:08;;;;;;;6.50;4.75;;;;;;;22.14;41.60;95286.13;4949882;28;20725;-67
2022/09/08 08:16:40;;;;;;;5.93;4.32;;;;;;;21.80;41.87;95290.84;4933593;29;20615;-66
2022/09/08 08:19:27;;;;;;;7.60;4.45;;;;;;;21.93;40.96;95294.50;4944897;28;20291;-66
2022/09/08 08:22:14;;;;;;;5.88;4.93;;;;;;;21.76;41.36;95288.84;4931622;29;20876;-71
2022/09/08 08:24:52;;;;;;;6.25;4.43;;;;;;;21.83;42.42;95294.97;4925354;29;20328;-71
2022/09/08 08:27:23;;;;;;;10.27;5.43;;;;;;;21.93;41.93;95289.97;4942692;28;20224;-69
2022/09/08 08:30:01;;;;;;;5.65;4.80;;;;;;;21.72;41.54;95283.06;4946671;29;20228;-69
2022/09/08 08:32:32;;;;;;;7.30;4.80;;;;;;;21.70;41.80;95287.00;4932021;29;20271;-66
2022/09/08 08:34:59;;;;;;;4.82;4.32;;;;;;;22.12;41.51;95290.03;4933978;29;20255;-66
2022/09/08 08:37:29;;;;;;;7.18;4.57;;;;;;;22.49;40.18;95292.88;4975037;28;20249;-66
2022/09/08 08:39:55;;;;;;;7.47;4.95;;;;;;;22.79;39.64;95288.47;4996222;28;20253;-66
2022/09/08 08:42:42;;;;;;;5.63;4.65;;;;;;;22.82;38.65;95271.13;5015268;28;20211;-66
2022/09/08 08:45:16;;;;;;;6.13;4.60;;;;;;;22.54;39.53;95272.44;5010615;28;20297;-65
2022/09/08 08:48:03;;;;;;;4.88;4.38;;;;;;;22.71;39.34;95270.00;5016054;28;20237;-66
2022/09/08 08:50:52;;;;;;;5.57;4.90;;;;;;;22.62;40.38;95264.09;5006059;28;20249;-68
2022/09/08 08:53:42;;;;;;;5.00;4.32;;;;;;;22.79;40.13;95260.84;4959491;28;20310;-67
2022/09/08 08:56:24;;;;;;;5.97;5.03;;;;;;;22.66;40.17;95257.25;4968483;28;20315;-67
2022/09/08 08:59:25;;;;;;;5.25;4.75;;;;;;;22.72;40.36;95255.56;4968272;28;20275;-69
2022/09/08 09:02:24;;;;;;;4.80;4.15;;;;;;;22.87;39.17;95244.47;4970488;28;20251;-70
2022/09/08 09:05:17;;;;;;;10.13;4.40;;;;;;;22.80;39.71;95238.34;4967851;28;20228;-70
2022/09/08 09:08:01;;;;;;;5.43;4.85;;;;;;;22.75;39.20;95238.19;4954620;28;20232;-70
2022/09/08 09:11:21;;;;;;;5.35;4.65;;;;;;;22.73;39.88;95225.03;4945275;28;20228;-70
2022/09/08 09:14:12;;;;;;;5.75;5.07;;;;;;;22.78;39.04;95230.53;4877970;29;20228;-70
2022/09/08 09:16:56;;;;;;;7.90;4.85;;;;;;;22.85;39.86;95222.41;4856775;29;20348;-68
2022/09/08 09:19:43;;;;;;;6.18;4.07;;;;;;;23.11;38.86;95210.59;4871779;29;20802;-70
2022/09/08 09:22:14;;;;;;;5.65;4.00;;;;;;;23.08;38.57;95208.38;4883446;29;20277;-69
2022/09/08 09:25:08;;;;;;;5.53;4.35;;;;;;;23.21;38.67;95205.53;4877683;29;20272;-70
2022/09/08 09:27:36;;;;;;;7.35;4.85;;;;;;;23.27;38.20;95199.25;4872284;29;20239;-70
2022/09/08 09:30:20;;;;;;;5.13;4.63;;;;;;;23.44;37.76;95195.94;4894174;29;20719;-73
2022/09/08 09:33:03;;;;;;;5.22;4.10;;;;;;;23.40;37.31;95190.22;4911497;29;20349;-67
2022/09/08 09:35:57;;;;;;;6.80;4.47;;;;;;;23.50;37.47;95192.34;4914632;29;20586;-66
2022/09/08 09:38:44;;;;;;;6.50;4.30;;;;;;;23.66;37.50;95185.53;4912036;29;20774;-66
2022/09/08 09:41:37;;;;;;;5.85;4.60;;;;;;;23.74;37.93;95194.09;4903398;29;20229;-65
2022/09/08 09:44:12;;;;;;;6.30;4.68;;;;;;;23.77;38.68;95187.44;4923473;29;20226;-66
2022/09/08 09:46:56;;;;;;;6.22;4.43;;;;;;;24.08;37.27;95183.63;4913722;28;20272;-67
2022/09/08 09:49:39;;;;;;;6.57;4.45;;;;;;;24.19;37.15;95179.31;5008165;28;20227;-72
2022/09/08 09:52:27;;;;;;;6.05;4.35;;;;;;;24.10;36.90;95181.53;5008123;28;20222;-69
2022/09/08 09:54:58;;;;;;;4.82;4.28;;;;;;;24.42;36.25;95173.94;5008845;28;20764;-69
2022/09/08 09:57:42;;;;;;;4.78;4.25;;;;;;;24.39;36.21;95173.59;5006337;28;20285;-70
2022/09/08 10:00:17;;;;;;;4.35;4.00;;;;;;;24.55;35.63;95167.56;5009027;28;20206;-69
2022/09/08 10:02:50;;;;;;;4.93;4.53;;;;;;;24.58;35.50;95161.69;4996824;28;20226;-69
2022/09/08 10:05:40;;;;;;;7.72;4.80;;;;;;;24.61;35.60;95155.84;5008814;28;20226;-69
2022/09/08 10:08:08;;;;;;;5.28;4.40;;;;;;;24.42;36.66;95143.56;5004463;28;20611;-69
2022/09/08 10:11:17;;;;;;;6.45;5.00;;;;;;;24.90;35.78;95139.78;5006483;28;20218;-70
2022/09/08 10:14:09;;;;;;;5.35;4.72;;;;;;;25.01;35.69;95132.72;5005019;28;20254;-70
2022/09/08 10:17:08;;;;;;;4.95;4.47;;;;;;;25.05;35.78;95137.41;4997482;28;20261;-70
2022/09/08 10:19:53;;;;;;;8.80;4.60;;;;;;;25.24;34.27;95138.06;5005033;28;20629;-71
2022/09/08 10:22:49;;;;;;;5.05;4.65;;;;;;;25.20;35.31;95138.78;5001178;28;20227;-71
2022/09/08 10:25:42;;;;;;;6.38;4.82;;;;;;;25.27;34.93;95123.31;5009704;28;20233;-70
2022/09/08 10:29:06;;;;;;;7.00;4.78;;;;;;;25.41;35.90;95119.25;5010512;28;20226;-67
2022/09/08 10:32:09;;;;;;;6.10;4.35;;;;;;;25.65;35.20;95117.22;4970408;28;20228;-70
2022/09/08 10:34:54;;;;;;;7.55;5.07;;;;;;;25.84;34.40;95104.38;4899431;29;20723;-66
2022/09/08 10:37:44;;;;;;;5.75;4.30;;;;;;;25.98;34.39;95109.44;4914709;29;20238;-70
2022/09/08 10:40:30;;;;;;;5.78;4.70;;;;;;;26.17;33.54;95114.34;4899880;29;20237;-70
2022/09/08 10:43:14;;;;;;;7.10;4.60;;;;;;;26.14;33.29;95104.06;4901593;29;20234;-72
2022/09/08 10:45:57;;;;;;;5.32;4.82;;;;;;;26.13;32.99;95102.41;4897444;29;20747;-70
2022/09/08 10:48:57;;;;;;;6.35;5.75;;;;;;;26.28;33.59;95101.81;4912729;29;20386;-70
2022/09/08 10:51:28;;;;;;;8.93;6.70;;;;;;;26.53;33.27;95100.56;4912613;29;20734;-71
2022/09/08 10:54:15;;;;;;;5.30;4.80;;;;;;;26.03;33.48;95104.94;4897991;29;20881;-71
2022/09/08 10:56:44;;;;;;;5.82;4.75;;;;;;;25.41;34.57;95099.59;4897203;29;20222;-70
2022/09/08 10:59:35;;;;;;;5.97;4.72;;;;;;;25.68;34.25;95095.19;4913939;29;20814;-72
2022/09/08 11:02:31;;;;;;;5.95;4.55;;;;;;;25.93;33.79;95096.72;4911359;28;20284;-69
2022/09/08 11:05:20;;;;;;;4.90;4.47;;;;;;;26.44;32.71;95091.22;4898437;29;20234;-71
2022/09/08 11:08:07;;;;;;;6.85;5.00;;;;;;;26.66;32.32;95084.00;4914848;29;20228;-69
2022/09/08 11:11:03;;;;;;;5.50;4.80;;;;;;;26.67;33.20;95082.13;4946038;29;20254;-70
2022/09/08 11:13:34;;;;;;;8.10;6.10;;;;;;;27.12;32.48;95081.84;4947892;29;20319;-71
2022/09/08 11:16:17;;;;;;;6.05;4.65;;;;;;;27.45;32.28;95078.16;4930373;29;20244;-66
2022/09/08 11:18:51;;;;;;;5.68;5.15;;;;;;;27.59;32.15;95077.72;4932534;29;20239;-72
2022/09/08 11:21:47;;;;;;;5.60;4.70;;;;;;;27.69;31.53;95075.09;4946070;29;20213;-66
2022/09/08 11:24:38;;;;;;;4.93;4.35;;;;;;;27.67;30.52;95069.97;4928385;29;20373;-67
2022/09/08 11:27:14;;;;;;;4.60;4.30;;;;;;;27.75;31.21;95074.09;4934840;29;20298;-67
2022/09/08 11:29:40;;;;;;;6.53;4.30;;;;;;;27.65;31.76;95069.41;4945226;29;20252;-68
2022/09/08 11:32:14;;;;;;;4.57;4.18;;;;;;;27.96;31.00;95068.84;4935418;29;20247;-67
2022/09/08 11:34:39;;;;;;;6.20;4.63;;;;;;;28.00;31.15;95070.78;4946459;28;20271;-73
2022/09/08 11:37:08;;;;;;;6.63;4.90;;;;;;;28.22;30.97;95067.94;4951757;29;21291;-73
2022/09/08 11:39:36;;;;;;;5.20;4.47;;;;;;;28.25;30.17;95066.59;4936034;29;20516;-69
2022/09/08 11:42:29;;;;;;;7.47;4.93;;;;;;;28.34;29.95;95073.97;4991007;28;20210;-72
2022/09/08 11:45:17;;;;;;;6.78;4.63;;;;;;;28.19;30.34;95078.47;5004652;28;20318;-72
2022/09/08 11:48:05;;;;;;;5.30;4.05;;;;;;;28.46;30.20;95071.06;5009117;28;20223;-72
2022/09/08 11:50:45;;;;;;;6.68;5.60;;;;;;;28.94;30.23;95079.13;4999062;28;20293;-66
2022/09/08 11:53:33;;;;;;;6.57;4.80;;;;;;;29.15;29.50;95074.63;4999148;28;20233;-71
2022/09/08 11:56:08;;;;;;;6.70;5.20;;;;;;;29.42;29.21;95075.22;5002375;28;20231;-70
2022/09/08 11:59:03;;;;;;;5.85;4.65;;;;;;;29.46;28.59;95070.09;4999750;28;20246;-70
2022/09/08 12:01:44;;;;;;;5.97;4.10;;;;;;;29.67;28.18;95079.03;5003721;28;20246;-65
2022/09/08 12:05:07;;;;;;;5.43;4.50;;;;;;;29.55;28.28;95070.34;5004681;28;20226;-70
2022/09/08 12:07:48;;;;;;;5.57;4.47;;;;;;;29.53;28.36;95061.69;4946728;28;20229;-69
2022/09/08 12:10:40;;;;;;;5.80;5.03;;;;;;;29.86;28.14;95072.03;4948364;28;20228;-70
2022/09/08 12:13:11;;;;;;;5.00;4.60;;;;;;;29.93;28.57;95063.59;4950768;29;20235;-72
2022/09/08 12:15:49;;;;;;;5.50;5.00;;;;;;;29.88;28.44;95061.72;4930608;29;20225;-65
2022/09/08 12:18:27;;;;;;;6.22;4.22;;;;;;;29.49;28.39;95058.72;4933365;29;20335;-66